createdAt,value
2022-10-28T00:02:18.192Z,2.70
2022-10-28T00:04:44.611Z,3.28
2022-10-28T00:07:10.923Z,2.97
2022-10-28T00:09:37.326Z,2.92
2022-10-28T00:12:03.760Z,2.92
2022-10-28T00:14:30.203Z,3.28
2022-10-28T00:16:56.521Z,2.65
2022-10-28T00:19:22.869Z,2.58
2022-10-28T00:21:49.221Z,3.65
2022-10-28T00:24:15.674Z,2.90
2022-10-28T00:26:42.762Z,3.33
2022-10-28T00:29:11.345Z,3.83
2022-10-28T00:31:37.761Z,2.85
2022-10-28T00:34:07.975Z,3.40
2022-10-28T00:36:36.003Z,3.30
2022-10-28T00:39:03.103Z,3.72
2022-10-28T00:41:34.022Z,3.30
2022-10-28T00:44:01.950Z,3.30
2022-10-28T00:46:31.338Z,3.30
2022-10-28T00:49:00.309Z,3.70
2022-10-28T00:51:27.347Z,3.28
2022-10-28T00:53:55.353Z,3.70
2022-10-28T00:56:23.004Z,4.03
2022-10-28T01:01:15.787Z,3.88
2022-10-28T01:03:42.129Z,4.20
2022-10-28T01:06:08.606Z,3.75
2022-10-28T01:08:34.999Z,4.25
2022-10-28T01:11:07.446Z,3.90
2022-10-28T01:13:33.744Z,4.38
2022-10-28T01:16:18.855Z,4.18
2022-10-28T01:19:05.435Z,3.92
2022-10-28T01:21:31.741Z,4.38
2022-10-28T01:24:16.900Z,4.15
2022-10-28T01:26:43.532Z,4.10
2022-10-28T01:29:12.855Z,3.95
2022-10-28T01:31:51.591Z,4.85
2022-10-28T01:34:21.084Z,4.30
2022-10-28T01:37:11.389Z,3.78
2022-10-28T01:39:43.386Z,3.60
2022-10-28T01:42:28.293Z,4.35
2022-10-28T01:45:04.066Z,3.70
2022-10-28T01:47:35.094Z,4.15
2022-10-28T01:50:07.670Z,4.68
2022-10-28T01:52:33.983Z,3.67
2022-10-28T01:55:06.103Z,4.22
2022-10-28T01:57:33.552Z,3.80
2022-10-28T02:00:00.505Z,4.22
2022-10-28T02:02:29.879Z,3.97
2022-10-28T02:05:07.106Z,4.05
2022-10-28T02:07:33.461Z,3.65
2022-10-28T02:10:03.928Z,3.80
2022-10-28T02:12:37.845Z,4.07
2022-10-28T02:15:25.408Z,3.78
2022-10-28T02:18:13.074Z,4.00
2022-10-28T02:20:43.467Z,4.32
2022-10-28T02:23:18.807Z,4.43
2022-10-28T02:25:45.119Z,4.10
2022-10-28T02:28:16.045Z,4.35
2022-10-28T02:30:45.388Z,3.90
2022-10-28T02:33:14.847Z,4.00
2022-10-28T02:35:47.243Z,4.60
2022-10-28T02:38:21.917Z,3.97
2022-10-28T02:43:20.465Z,3.55
2022-10-28T02:45:48.655Z,3.90
2022-10-28T02:48:14.997Z,3.72
2022-10-28T02:50:43.762Z,3.00
2022-10-28T02:53:19.235Z,3.28
2022-10-28T02:55:48.344Z,3.17
2022-10-28T02:58:14.749Z,3.40
2022-10-28T03:00:44.160Z,2.80
2022-10-28T03:03:10.562Z,2.50
2022-10-28T03:05:36.931Z,2.30
2022-10-28T03:08:03.374Z,1.85
2022-10-28T03:10:29.691Z,2.15
2022-10-28T03:12:56.073Z,1.88
2022-10-28T03:15:22.395Z,2.10
2022-10-28T03:17:48.719Z,1.77
2022-10-28T03:20:15.162Z,1.73
2022-10-28T03:22:44.386Z,2.00
2022-10-28T03:25:10.778Z,2.20
2022-10-28T03:27:39.299Z,1.83
2022-10-28T03:30:06.019Z,2.40
2022-10-28T03:32:32.379Z,2.25
2022-10-28T03:34:58.709Z,1.85
2022-10-28T03:37:25.039Z,2.33
2022-10-28T03:39:51.362Z,1.85
2022-10-28T03:42:17.683Z,2.17
2022-10-28T03:44:44.044Z,2.30
2022-10-28T03:47:10.520Z,2.03
2022-10-28T03:49:36.849Z,2.53
2022-10-28T03:52:04.071Z,2.30
2022-10-28T03:54:30.400Z,2.40
2022-10-28T03:56:56.728Z,2.28
2022-10-28T03:59:23.137Z,2.83
2022-10-28T04:01:49.609Z,2.83
2022-10-28T04:04:16.038Z,2.75
2022-10-28T04:06:42.366Z,2.63
2022-10-28T04:09:08.753Z,2.83
2022-10-28T04:11:35.157Z,3.20
2022-10-28T04:14:01.568Z,2.80
2022-10-28T04:16:27.893Z,3.20
2022-10-28T04:18:54.265Z,2.55
2022-10-28T04:21:20.691Z,2.70
2022-10-28T04:23:47.012Z,3.15
2022-10-28T04:26:14.255Z,3.38
2022-10-28T04:28:40.822Z,3.25
2022-10-28T04:31:07.297Z,3.35
2022-10-28T04:33:33.610Z,3.13
2022-10-28T04:35:59.952Z,3.60
2022-10-28T04:38:26.332Z,3.58
2022-10-28T04:40:52.681Z,3.58
2022-10-28T04:43:19.074Z,3.13
2022-10-28T04:45:46.397Z,3.00
2022-10-28T04:48:14.269Z,3.72
2022-10-28T04:50:40.622Z,3.03
2022-10-28T04:53:06.998Z,3.25
2022-10-28T04:55:33.333Z,3.05
2022-10-28T04:58:00.365Z,3.45
2022-10-28T05:00:27.838Z,3.53
2022-10-28T05:02:54.917Z,3.42
2022-10-28T05:05:21.775Z,3.25
2022-10-28T05:07:48.117Z,3.20
2022-10-28T05:10:18.174Z,3.10
2022-10-28T05:12:45.314Z,2.85
2022-10-28T05:15:12.069Z,3.05
2022-10-28T05:17:39.437Z,3.20
2022-10-28T05:20:06.348Z,2.72
2022-10-28T05:22:32.688Z,2.67
2022-10-28T05:24:59.002Z,3.00
2022-10-28T05:27:25.363Z,3.00
2022-10-28T05:29:51.716Z,3.72
2022-10-28T05:32:18.119Z,3.78
2022-10-28T05:34:44.502Z,3.63
2022-10-28T05:37:10.946Z,3.75
2022-10-28T05:39:37.247Z,3.88
2022-10-28T05:42:03.720Z,4.30
2022-10-28T05:44:30.093Z,4.25
2022-10-28T05:46:56.573Z,4.32
2022-10-28T05:49:23.232Z,4.55
2022-10-28T05:51:49.567Z,3.97
2022-10-28T05:54:15.895Z,3.92
2022-10-28T05:56:42.230Z,4.22
2022-10-28T05:59:08.545Z,4.28
2022-10-28T06:01:34.929Z,4.45
2022-10-28T06:04:01.356Z,3.83
2022-10-28T06:06:28.131Z,4.18
2022-10-28T06:08:54.452Z,3.15
2022-10-28T06:11:19.234Z,4.10
2022-10-28T06:13:45.591Z,3.65
2022-10-28T06:16:11.968Z,3.55
2022-10-28T06:18:38.397Z,3.10
2022-10-28T06:21:04.750Z,2.95
2022-10-28T06:23:31.207Z,2.80
2022-10-28T06:25:58.836Z,2.67
2022-10-28T06:28:25.766Z,2.70
2022-10-28T06:30:52.108Z,2.42
2022-10-28T06:33:18.517Z,2.05
2022-10-28T06:35:44.834Z,2.08
2022-10-28T06:38:11.286Z,2.05
2022-10-28T06:40:37.659Z,2.22
2022-10-28T06:43:05.037Z,1.70
2022-10-28T06:45:32.422Z,1.48
2022-10-28T06:48:05.096Z,1.40
2022-10-28T06:50:32.339Z,1.35
2022-10-28T06:52:59.037Z,1.42
2022-10-28T06:55:25.978Z,1.23
2022-10-28T06:57:52.786Z,1.08
2022-10-28T07:00:19.358Z,0.90
2022-10-28T07:02:50.206Z,0.60
2022-10-28T07:05:16.591Z,0.50
2022-10-28T07:07:42.936Z,0.60
2022-10-28T07:10:09.349Z,0.50
2022-10-28T07:12:35.704Z,0.55
2022-10-28T07:15:02.031Z,0.60
2022-10-28T07:17:28.355Z,0.82
2022-10-28T07:19:54.727Z,0.70
2022-10-28T07:22:25.382Z,0.85
2022-10-28T07:24:52.131Z,0.95
2022-10-28T07:27:18.524Z,0.88
2022-10-28T07:29:44.847Z,0.90
2022-10-28T07:32:11.234Z,0.77
2022-10-28T07:34:37.599Z,1.27
2022-10-28T07:37:05.968Z,1.13
2022-10-28T07:39:32.387Z,0.70
2022-10-28T07:41:58.853Z,1.20
2022-10-28T07:44:25.486Z,1.00
2022-10-28T07:46:55.599Z,1.10
2022-10-28T07:49:24.415Z,1.00
2022-10-28T07:51:51.342Z,0.77
2022-10-28T07:54:17.706Z,1.20
2022-10-28T07:56:44.294Z,1.50
2022-10-28T07:59:10.629Z,1.08
2022-10-28T08:01:37.115Z,1.05
2022-10-28T08:04:03.577Z,0.98
2022-10-28T08:06:30.044Z,0.70
2022-10-28T08:08:56.785Z,1.17
2022-10-28T08:11:23.913Z,0.90
2022-10-28T08:13:50.704Z,0.57
2022-10-28T08:16:17.323Z,0.70
2022-10-28T08:18:43.900Z,0.73
2022-10-28T08:21:10.843Z,0.50
2022-10-28T08:23:38.309Z,0.50
2022-10-28T08:26:04.774Z,0.80
2022-10-28T08:28:31.341Z,1.13
2022-10-28T08:31:08.737Z,0.60
2022-10-28T08:33:39.937Z,0.90
2022-10-28T08:36:10.556Z,1.13
2022-10-28T08:38:38.765Z,1.02
2022-10-28T08:41:08.066Z,0.55
2022-10-28T08:43:56.670Z,0.73
2022-10-28T08:46:26.915Z,0.60
2022-10-28T08:48:53.710Z,0.82
2022-10-28T08:51:36.997Z,0.93
2022-10-28T08:54:06.070Z,1.40
2022-10-28T08:56:37.383Z,0.85
2022-10-28T08:59:05.950Z,0.90
2022-10-28T09:01:36.986Z,1.10
2022-10-28T09:04:05.726Z,0.90
2022-10-28T09:06:32.079Z,0.85
2022-10-28T09:08:59.072Z,1.00
2022-10-28T09:11:49.371Z,0.47
2022-10-28T09:14:15.681Z,0.60
2022-10-28T09:16:49.438Z,0.80
2022-10-28T09:19:31.894Z,0.50
2022-10-28T09:22:05.702Z,0.50
2022-10-28T09:24:34.846Z,0.45
2022-10-28T09:27:09.009Z,0.60
2022-10-28T09:29:54.633Z,0.70
2022-10-28T09:32:24.134Z,0.70
2022-10-28T09:34:54.450Z,0.65
2022-10-28T09:37:33.918Z,0.52
2022-10-28T09:40:02.326Z,0.60
2022-10-28T09:42:31.041Z,0.70
2022-10-28T09:45:11.946Z,0.40
2022-10-28T09:47:42.253Z,0.80
2022-10-28T09:50:14.523Z,0.60
2022-10-28T09:52:50.609Z,0.50
2022-10-28T09:55:19.961Z,0.40
2022-10-28T09:57:46.288Z,0.50
2022-10-28T10:00:13.804Z,0.50
2022-10-28T10:02:40.456Z,0.50
2022-10-28T10:05:15.997Z,0.68
2022-10-28T10:07:45.859Z,0.60
2022-10-28T10:10:14.161Z,0.60
2022-10-28T10:12:40.769Z,0.60
2022-10-28T10:15:08.106Z,0.50
2022-10-28T10:17:40.227Z,0.70
2022-10-28T10:20:06.818Z,0.47
2022-10-28T10:22:34.693Z,0.50
2022-10-28T10:25:01.403Z,0.77
2022-10-28T10:27:28.878Z,1.33
2022-10-28T10:29:55.673Z,0.90
2022-10-28T10:32:21.980Z,0.52
2022-10-28T10:35:01.677Z,0.55
2022-10-28T10:37:28.409Z,0.70
2022-10-28T10:40:06.579Z,0.40
2022-10-28T10:42:39.137Z,0.50
2022-10-28T10:45:16.057Z,0.60
2022-10-28T10:47:42.779Z,0.80
2022-10-28T10:50:29.429Z,0.70
2022-10-28T10:52:57.763Z,0.30
2022-10-28T10:55:38.680Z,0.73
2022-10-28T10:58:06.330Z,0.40
2022-10-28T11:00:37.050Z,0.40
2022-10-28T11:03:04.645Z,0.40
2022-10-28T11:05:35.606Z,0.30
2022-10-28T11:08:06.610Z,0.35
2022-10-28T11:10:34.371Z,0.30
2022-10-28T11:13:23.664Z,0.32
2022-10-28T11:15:59.391Z,0.60
2022-10-28T11:18:25.730Z,0.43
2022-10-28T11:21:03.477Z,0.27
2022-10-28T11:23:36.011Z,0.77
2022-10-28T11:26:04.991Z,0.50
2022-10-28T11:28:38.623Z,0.50
2022-10-28T11:31:23.632Z,0.60
2022-10-28T11:33:49.939Z,0.70
2022-10-28T11:36:31.934Z,0.40
2022-10-28T11:38:58.245Z,0.40
2022-10-28T11:41:30.446Z,0.53
2022-10-28T11:44:03.816Z,0.40
2022-10-28T11:46:31.557Z,0.45
2022-10-28T11:48:57.880Z,0.60
2022-10-28T11:51:33.097Z,0.60
2022-10-28T11:53:59.478Z,0.45
2022-10-28T11:56:47.823Z,0.65
2022-10-28T11:59:17.227Z,0.73
2022-10-28T12:02:02.629Z,0.50
2022-10-28T12:04:37.990Z,0.57
2022-10-28T12:07:10.986Z,0.55
2022-10-28T12:09:56.151Z,0.70
2022-10-28T12:12:41.121Z,0.70
2022-10-28T12:15:13.760Z,0.50
2022-10-28T12:17:40.587Z,0.40
2022-10-28T12:22:36.377Z,0.30
2022-10-28T12:25:07.208Z,0.60
2022-10-28T12:27:36.195Z,0.60
2022-10-28T12:30:14.717Z,0.50
2022-10-28T12:32:41.302Z,0.85
2022-10-28T12:35:07.757Z,0.57
2022-10-28T12:37:38.133Z,0.40
2022-10-28T12:40:07.744Z,0.52
2022-10-28T12:42:37.135Z,0.50
2022-10-28T12:45:04.942Z,0.55
2022-10-28T12:47:54.899Z,0.60
2022-10-28T12:50:32.426Z,0.43
2022-10-28T12:53:06.181Z,0.73
2022-10-28T12:55:32.511Z,0.68
2022-10-28T12:58:10.928Z,0.70
2022-10-28T13:00:40.850Z,0.73
2022-10-28T13:03:11.423Z,0.52
2022-10-28T13:05:40.600Z,0.50
2022-10-28T13:08:06.987Z,0.50
2022-10-28T13:10:40.441Z,0.50
2022-10-28T13:13:15.691Z,0.60
2022-10-28T13:16:05.048Z,2.05
2022-10-28T13:18:54.700Z,5.55
2022-10-28T13:21:21.027Z,2.53
2022-10-28T13:23:54.889Z,2.83
2022-10-28T13:26:28.597Z,2.90
2022-10-28T13:28:56.380Z,2.83
2022-10-28T13:31:23.086Z,4.65
2022-10-28T13:33:54.614Z,2.85
2022-10-28T13:36:31.264Z,8.77
2022-10-28T13:38:59.811Z,5.10
2022-10-28T13:41:30.811Z,0.70
2022-10-28T13:43:58.554Z,0.65
2022-10-28T13:46:43.661Z,0.63
2022-10-28T13:49:23.213Z,0.60
2022-10-28T13:52:00.075Z,0.50
2022-10-28T13:56:52.898Z,1.10
2022-10-28T13:59:27.898Z,2.05
2022-10-28T14:02:08.038Z,3.22
2022-10-28T14:04:41.489Z,6.18
2022-10-28T14:07:10.944Z,2.72
2022-10-28T14:09:37.969Z,1.42
2022-10-28T14:12:13.208Z,1.65
2022-10-28T14:14:49.905Z,0.95
2022-10-28T14:17:23.857Z,2.60
2022-10-28T14:19:51.853Z,5.28
2022-10-28T14:22:32.671Z,6.63
2022-10-28T14:24:59.183Z,3.15
2022-10-28T14:27:27.204Z,2.70
2022-10-28T14:29:56.550Z,1.90
2022-10-28T14:32:32.262Z,2.08
2022-10-28T14:34:59.269Z,2.95
2022-10-28T14:37:47.839Z,3.25
2022-10-28T14:40:21.803Z,2.10
2022-10-28T14:42:55.129Z,2.20
2022-10-28T14:45:27.790Z,1.35
2022-10-28T14:48:13.100Z,1.48
2022-10-28T14:50:41.698Z,1.00
2022-10-28T14:53:13.160Z,0.90
2022-10-28T14:55:39.934Z,1.20
2022-10-28T14:58:18.216Z,1.10
2022-10-28T15:00:49.390Z,0.98
2022-10-28T15:03:15.850Z,1.60
2022-10-28T15:05:42.164Z,1.52
2022-10-28T15:08:10.072Z,1.60
2022-10-28T15:10:38.386Z,0.90
2022-10-28T15:13:06.901Z,1.42
2022-10-28T15:15:35.019Z,2.30
2022-10-28T15:18:01.504Z,1.55
2022-10-28T15:20:32.265Z,1.30
2022-10-28T15:26:08.433Z,1.35
2022-10-28T15:28:34.834Z,1.60
2022-10-28T15:31:01.166Z,1.53
2022-10-28T15:33:29.878Z,1.65
2022-10-28T15:36:07.992Z,1.35
2022-10-28T15:38:39.246Z,1.60
2022-10-28T15:41:28.725Z,1.55
2022-10-28T15:43:55.454Z,1.50
2022-10-28T15:46:22.937Z,1.63
2022-10-28T15:48:52.873Z,1.20
2022-10-28T15:51:20.318Z,1.30
2022-10-28T15:56:53.635Z,1.90
2022-10-28T15:59:21.345Z,2.00
2022-10-28T16:01:47.838Z,1.80
2022-10-28T16:04:23.339Z,2.40
2022-10-28T16:06:51.822Z,2.28
2022-10-28T16:09:27.275Z,1.60
2022-10-28T16:11:57.355Z,2.10
2022-10-28T16:14:23.675Z,1.38
2022-10-28T16:16:50.052Z,1.50
2022-10-28T16:19:27.938Z,1.92
2022-10-28T16:21:54.315Z,1.80
2022-10-28T16:24:20.625Z,2.10
2022-10-28T16:26:46.998Z,1.92
2022-10-28T16:29:13.345Z,1.80
2022-10-28T16:31:40.984Z,1.95
2022-10-28T16:34:12.873Z,2.00
2022-10-28T16:36:39.202Z,2.17
2022-10-28T16:39:11.357Z,2.08
2022-10-28T16:41:37.765Z,1.83
2022-10-28T16:44:04.245Z,2.10
2022-10-28T16:46:30.666Z,2.17
2022-10-28T16:48:57.029Z,2.50
2022-10-28T16:51:23.332Z,2.60
2022-10-28T16:53:50.888Z,2.28
2022-10-28T16:58:43.550Z,2.05
2022-10-28T17:01:10.298Z,2.40
2022-10-28T17:03:36.704Z,2.25
2022-10-28T17:06:03.169Z,2.72
2022-10-28T17:08:56.546Z,2.47
2022-10-28T17:11:16.193Z,2.03
2022-10-28T17:13:42.554Z,1.80
2022-10-28T17:16:08.946Z,2.50
2022-10-28T17:18:35.282Z,2.58
2022-10-28T17:21:02.637Z,2.35
2022-10-28T17:23:29.617Z,2.47
2022-10-28T17:25:57.083Z,2.55
2022-10-28T17:28:23.425Z,2.25
2022-10-28T17:30:49.786Z,2.35
2022-10-28T17:33:16.111Z,2.30
2022-10-28T17:35:42.420Z,2.22
2022-10-28T17:38:08.777Z,2.33
2022-10-28T17:40:35.134Z,2.70
2022-10-28T17:43:01.475Z,2.65
2022-10-28T17:45:27.868Z,2.63
2022-10-28T17:47:54.506Z,3.30
2022-10-28T17:50:20.819Z,2.72
2022-10-28T17:52:47.144Z,3.35
2022-10-28T17:55:13.487Z,2.90
2022-10-28T17:57:39.850Z,2.85
2022-10-28T18:00:06.533Z,3.63
2022-10-28T18:02:32.938Z,3.00
2022-10-28T18:04:59.484Z,3.08
2022-10-28T18:07:26.678Z,3.65
2022-10-28T18:09:53.180Z,3.83
2022-10-28T18:12:19.594Z,3.75
2022-10-28T18:14:45.941Z,4.75
2022-10-28T18:17:13.308Z,5.30
2022-10-28T18:19:39.729Z,4.30
2022-10-28T18:22:06.097Z,5.53
2022-10-28T18:24:32.434Z,5.18
2022-10-28T18:26:58.838Z,3.55
2022-10-28T18:29:25.300Z,3.75
2022-10-28T18:31:51.621Z,3.67
2022-10-28T18:34:18.055Z,4.22
2022-10-28T18:36:44.473Z,3.90
2022-10-28T18:39:10.800Z,3.22
2022-10-28T18:41:41.438Z,3.17
2022-10-28T18:44:10.321Z,3.42
2022-10-28T18:46:37.700Z,3.25
2022-10-28T18:49:05.277Z,3.30
2022-10-28T18:51:32.333Z,4.15
2022-10-28T18:53:58.696Z,3.83
2022-10-28T18:56:26.246Z,3.03
2022-10-28T18:58:52.693Z,3.08
2022-10-28T19:01:21.184Z,3.53
2022-10-28T19:03:50.833Z,3.10
2022-10-28T19:06:17.528Z,3.35
2022-10-28T19:08:44.104Z,3.67
2022-10-28T19:11:12.402Z,3.13
2022-10-28T19:13:39.965Z,3.40
2022-10-28T19:16:06.707Z,3.58
2022-10-28T19:18:35.490Z,2.70
2022-10-28T19:21:04.207Z,3.20
2022-10-28T19:23:31.495Z,3.47
2022-10-28T19:25:58.103Z,2.47
2022-10-28T19:28:24.627Z,3.80
2022-10-28T19:30:58.554Z,2.90
2022-10-28T19:33:24.884Z,3.05
2022-10-28T19:35:51.241Z,2.45
2022-10-28T19:38:17.563Z,2.55
2022-10-28T19:40:43.896Z,2.75
2022-10-28T19:43:10.263Z,2.63
2022-10-28T19:45:36.615Z,3.08
2022-10-28T19:48:03.052Z,2.70
2022-10-28T19:50:29.393Z,2.97
2022-10-28T19:52:55.764Z,3.38
2022-10-28T19:55:22.093Z,2.70
2022-10-28T19:57:51.894Z,2.40
2022-10-28T20:00:19.401Z,3.35
2022-10-28T20:02:46.894Z,2.65
2022-10-28T20:05:13.394Z,3.25
2022-10-28T20:07:39.753Z,3.30
2022-10-28T20:10:06.327Z,3.38
2022-10-28T20:12:32.696Z,3.55
2022-10-28T20:14:59.458Z,3.38
2022-10-28T20:17:25.779Z,2.83
2022-10-28T20:19:52.160Z,2.75
2022-10-28T20:22:18.585Z,3.05
2022-10-28T20:24:44.913Z,3.97
2022-10-28T20:27:11.236Z,2.47
2022-10-28T20:29:37.578Z,3.28
2022-10-28T20:32:04.091Z,3.13
2022-10-28T20:34:30.423Z,3.17
2022-10-28T20:36:56.773Z,2.72
2022-10-28T20:39:23.200Z,2.83
2022-10-28T20:41:51.033Z,2.72
2022-10-28T20:44:17.580Z,3.22
2022-10-28T20:46:48.031Z,3.15
2022-10-28T20:49:14.880Z,2.83
2022-10-28T20:51:41.544Z,2.97
2022-10-28T20:54:07.873Z,2.70
2022-10-28T20:56:36.198Z,3.38
2022-10-28T20:59:02.603Z,3.17
2022-10-28T21:01:30.324Z,3.22
2022-10-28T21:03:58.672Z,3.70
2022-10-28T21:08:51.461Z,3.78
2022-10-28T21:11:18.145Z,3.47
2022-10-28T21:13:46.141Z,3.65
2022-10-28T21:16:13.059Z,3.28
2022-10-28T21:18:39.807Z,3.20
2022-10-28T21:21:06.620Z,3.40
2022-10-28T21:23:32.954Z,2.73
2022-10-28T21:26:00.625Z,2.72
2022-10-28T21:28:28.640Z,2.75
2022-10-28T21:31:06.015Z,2.63
2022-10-28T21:33:33.169Z,2.67
2022-10-28T21:36:01.299Z,2.42
2022-10-28T21:38:28.660Z,2.42
2022-10-28T21:41:06.042Z,2.70
2022-10-28T21:43:33.671Z,2.25
2022-10-28T21:46:00.439Z,2.58
2022-10-28T21:48:27.571Z,2.80
2022-10-28T21:50:54.938Z,2.30
2022-10-28T21:53:21.695Z,2.40
2022-10-28T21:55:49.926Z,2.85
2022-10-28T21:58:17.463Z,3.03
2022-10-28T22:00:44.082Z,2.95
2022-10-28T22:03:11.273Z,2.42
2022-10-28T22:05:37.642Z,2.47
2022-10-28T22:08:05.103Z,2.17
2022-10-28T22:12:57.977Z,2.70
2022-10-28T22:15:24.345Z,3.08
2022-10-28T22:17:50.688Z,2.80
2022-10-28T22:20:17.214Z,3.47
2022-10-28T22:22:43.598Z,3.83
2022-10-28T22:25:10.606Z,4.43
2022-10-28T22:27:37.210Z,6.55
2022-10-28T22:30:03.875Z,2.97
2022-10-28T22:32:30.230Z,2.33
2022-10-28T22:34:56.576Z,3.05
2022-10-28T22:37:22.899Z,2.50
2022-10-28T22:39:49.223Z,2.03
2022-10-28T22:42:16.064Z,2.45
2022-10-28T22:44:42.407Z,2.15
2022-10-28T22:47:08.727Z,2.33
2022-10-28T22:49:35.059Z,2.67
2022-10-28T22:52:01.389Z,2.83
2022-10-28T22:54:27.716Z,2.50
2022-10-28T22:56:54.026Z,2.70
2022-10-28T22:59:20.626Z,2.45
2022-10-28T23:01:47.166Z,1.77
2022-10-28T23:04:13.633Z,2.83
2022-10-28T23:06:39.983Z,2.70
2022-10-28T23:09:06.341Z,2.95
2022-10-28T23:11:32.716Z,2.67
2022-10-28T23:13:59.082Z,2.20
2022-10-28T23:16:26.046Z,2.35
2022-10-28T23:18:55.412Z,2.40
2022-10-28T23:21:25.553Z,2.70
2022-10-28T23:23:55.653Z,2.90
2022-10-28T23:26:22.905Z,2.30
2022-10-28T23:28:53.348Z,2.55
2022-10-28T23:31:20.248Z,2.55
2022-10-28T23:33:46.750Z,3.17
2022-10-28T23:36:14.296Z,3.15
2022-10-28T23:38:40.876Z,3.38
2022-10-28T23:41:11.535Z,2.92
2022-10-28T23:43:38.184Z,3.35
2022-10-28T23:46:04.928Z,3.78
2022-10-28T23:48:31.275Z,3.47
2022-10-28T23:50:57.857Z,2.85
2022-10-28T23:53:24.695Z,3.20
2022-10-28T23:55:51.383Z,3.77
2022-10-28T23:58:18.428Z,3.47
